This is the latest recevied weather packets stored in our database for station/object K0APR. If no packets are shown the sender has not sent any weather packets the latest 10 day(s).
| Time | Temp. | Humidity | Pressure | Rain* | Wind** | Luminosity | Snow |
|---|---|---|---|---|---|---|---|
| 1777773871 | 17.78° C | 34% | 1008.4 hPa | 0 mm | - | 0 W/m² | - |
| 1777773567 | 17.78° C | 33% | 1008.4 hPa | 0 mm | - | 0 W/m² | - |
| 1777773264 | 17.78° C | 33% | 1008.4 hPa | 0 mm | - | 0 W/m² | - |
| 1777772960 | 17.78° C | 33% | 1008.4 hPa | 0 mm | - | 0 W/m² | - |
| 1777772658 | 18.33° C | 33% | 1008.4 hPa | 0 mm | - | 0 W/m² | - |
| 1777772356 | 18.33° C | 33% | 1008.4 hPa | 0 mm | - | 0 W/m² | - |
| 1777772052 | 18.33° C | 33% | 1008.4 hPa | 0 mm | - | 0 W/m² | - |
| 1777771749 | 18.33° C | 32% | 1008.4 hPa | 0 mm | - | 0 W/m² | - |
| 1777771448 | 18.89° C | 32% | 1008.4 hPa | 0 mm | - | 1 W/m² | - |
| 1777771143 | 18.89° C | 33% | 1008.8 hPa | 0 mm | - | 1 W/m² | - |
| 1777770840 | 18.89° C | 32% | 1009.2 hPa | 0 mm | - | 2 W/m² | - |
| 1777770537 | 18.89° C | 31% | 1008.8 hPa | 0 mm | - | 2 W/m² | - |
| 1777770234 | 18.89° C | 30% | 1009.2 hPa | 0 mm | - | 5 W/m² | - |
| 1777769931 | 18.89° C | 31% | 1009.2 hPa | 0 mm | - | 8 W/m² | - |
| 1777769629 | 18.89° C | 31% | 1009.2 hPa | 0 mm | - | 12 W/m² | - |
| 1777769324 | 18.89° C | 30% | 1009.2 hPa | 0 mm | - | 18 W/m² | - |
| 1777769022 | 18.89° C | 30% | 1009.5 hPa | 0 mm | - | 20 W/m² | - |
| 1777768719 | 19.44° C | 30% | 1009.8 hPa | 0 mm | - | 20 W/m² | - |
| 1777768416 | 19.44° C | 30% | 1009.8 hPa | 0 mm | - | 21 W/m² | - |
| 1777768113 | 19.44° C | 29% | 1009.8 hPa | 0 mm | - | 28 W/m² | - |
| 1777767810 | 19.44° C | 29% | 1009.5 hPa | 0 mm | - | 32 W/m² | - |
| 1777767507 | 19.44° C | 29% | 1010.2 hPa | 0 mm | - | 26 W/m² | - |
| 1777767203 | 19.44° C | 29% | 1010.2 hPa | 0 mm | - | 32 W/m² | - |
| 1777766900 | 19.44° C | 29% | 1009.8 hPa | 0 mm | - | 48 W/m² | - |
| 1777766598 | 19.44° C | 29% | 1010.2 hPa | 0 mm | - | 49 W/m² | - |
* Rain latest hour (hover to see other rain measurements)
** Current wind speed in m/s (hover to see current wind gust speed)